sensor_id;sensor_type;location;lat;lon;timestamp;temperature;humidity
4910;DHT22;2470;49.868;8.660;2022-09-09T00:00:40;19.10;99.90
4910;DHT22;2470;49.868;8.660;2022-09-09T00:03:16;19.10;99.90
4910;DHT22;2470;49.868;8.660;2022-09-09T00:05:59;19.00;99.90
4910;DHT22;2470;49.868;8.660;2022-09-09T00:11:54;19.00;99.90
4910;DHT22;2470;49.868;8.660;2022-09-09T00:17:04;19.00;99.90
4910;DHT22;2470;49.868;8.660;2022-09-09T00:19:39;19.00;99.90
4910;DHT22;2470;49.868;8.660;2022-09-09T00:22:18;19.00;99.90
4910;DHT22;2470;49.868;8.660;2022-09-09T00:24:46;19.00;99.90
4910;DHT22;2470;49.868;8.660;2022-09-09T00:27:37;19.00;99.90
4910;DHT22;2470;49.868;8.660;2022-09-09T00:30:18;19.00;99.90
4910;DHT22;2470;49.868;8.660;2022-09-09T00:32:46;19.00;99.90
4910;DHT22;2470;49.868;8.660;2022-09-09T00:35:25;19.10;99.90
4910;DHT22;2470;49.868;8.660;2022-09-09T00:37:56;19.00;99.90
4910;DHT22;2470;49.868;8.660;2022-09-09T00:40:32;19.00;99.90
4910;DHT22;2470;49.868;8.660;2022-09-09T00:43:21;19.10;99.90
4910;DHT22;2470;49.868;8.660;2022-09-09T00:45:53;19.10;99.90
4910;DHT22;2470;49.868;8.660;2022-09-09T00:48:24;19.10;99.90
4910;DHT22;2470;49.868;8.660;2022-09-09T00:51:06;19.00;99.90
4910;DHT22;2470;49.868;8.660;2022-09-09T00:53:58;19.10;99.90
4910;DHT22;2470;49.868;8.660;2022-09-09T00:56:29;19.10;99.90
4910;DHT22;2470;49.868;8.660;2022-09-09T00:59:12;19.00;99.90
4910;DHT22;2470;49.868;8.660;2022-09-09T01:01:42;19.10;99.90
4910;DHT22;2470;49.868;8.660;2022-09-09T01:04:14;19.10;99.90
4910;DHT22;2470;49.868;8.660;2022-09-09T01:06:43;19.10;99.90
4910;DHT22;2470;49.868;8.660;2022-09-09T01:09:27;19.10;99.90
4910;DHT22;2470;49.868;8.660;2022-09-09T01:12:12;19.10;99.90
4910;DHT22;2470;49.868;8.660;2022-09-09T01:14:49;19.10;99.90
4910;DHT22;2470;49.868;8.660;2022-09-09T01:17:27;19.10;99.90
4910;DHT22;2470;49.868;8.660;2022-09-09T01:20:12;19.10;99.90
4910;DHT22;2470;49.868;8.660;2022-09-09T01:23:00;19.10;99.90
4910;DHT22;2470;49.868;8.660;2022-09-09T01:28:17;19.10;99.90
4910;DHT22;2470;49.868;8.660;2022-09-09T01:30:44;19.00;99.90
4910;DHT22;2470;49.868;8.660;2022-09-09T01:33:14;19.10;99.90
4910;DHT22;2470;49.868;8.660;2022-09-09T01:35:48;19.10;99.90
4910;DHT22;2470;49.868;8.660;2022-09-09T01:38:17;19.00;99.90
4910;DHT22;2470;49.868;8.660;2022-09-09T01:40:43;19.00;99.90
4910;DHT22;2470;49.868;8.660;2022-09-09T01:43:09;19.00;99.90
4910;DHT22;2470;49.868;8.660;2022-09-09T01:45:35;19.00;99.90
4910;DHT22;2470;49.868;8.660;2022-09-09T01:48:02;18.90;99.90
4910;DHT22;2470;49.868;8.660;2022-09-09T01:50:28;18.80;99.90
4910;DHT22;2470;49.868;8.660;2022-09-09T01:52:58;18.80;99.90
4910;DHT22;2470;49.868;8.660;2022-09-09T01:55:30;18.80;99.90
4910;DHT22;2470;49.868;8.660;2022-09-09T01:58:11;18.80;99.90
4910;DHT22;2470;49.868;8.660;2022-09-09T02:00:44;18.70;99.90
4910;DHT22;2470;49.868;8.660;2022-09-09T02:03:25;18.60;99.90
4910;DHT22;2470;49.868;8.660;2022-09-09T02:08:50;18.70;99.90
4910;DHT22;2470;49.868;8.660;2022-09-09T02:11:18;18.60;99.90
4910;DHT22;2470;49.868;8.660;2022-09-09T02:13:47;18.60;99.90
4910;DHT22;2470;49.868;8.660;2022-09-09T02:16:32;18.60;99.90
4910;DHT22;2470;49.868;8.660;2022-09-09T02:21:32;18.60;99.90
4910;DHT22;2470;49.868;8.660;2022-09-09T02:24:03;18.60;99.90
4910;DHT22;2470;49.868;8.660;2022-09-09T02:26:31;18.60;99.90
4910;DHT22;2470;49.868;8.660;2022-09-09T02:29:15;18.60;99.90
4910;DHT22;2470;49.868;8.660;2022-09-09T02:31:42;18.60;99.90
4910;DHT22;2470;49.868;8.660;2022-09-09T02:34:10;18.60;99.90
4910;DHT22;2470;49.868;8.660;2022-09-09T02:36:40;18.60;99.90
4910;DHT22;2470;49.868;8.660;2022-09-09T02:39:09;18.60;99.90
4910;DHT22;2470;49.868;8.660;2022-09-09T02:41:38;18.60;99.90
4910;DHT22;2470;49.868;8.660;2022-09-09T02:44:12;18.60;99.90
4910;DHT22;2470;49.868;8.660;2022-09-09T02:49:10;18.60;99.90
4910;DHT22;2470;49.868;8.660;2022-09-09T02:51:50;18.50;99.90
4910;DHT22;2470;49.868;8.660;2022-09-09T02:54:26;18.50;99.90
4910;DHT22;2470;49.868;8.660;2022-09-09T02:56:54;18.50;99.90
4910;DHT22;2470;49.868;8.660;2022-09-09T02:59:21;18.50;99.90
4910;DHT22;2470;49.868;8.660;2022-09-09T03:01:46;18.50;99.90
4910;DHT22;2470;49.868;8.660;2022-09-09T03:04:13;18.50;99.90
4910;DHT22;2470;49.868;8.660;2022-09-09T03:06:38;18.40;99.90
4910;DHT22;2470;49.868;8.660;2022-09-09T03:09:04;18.50;99.90
4910;DHT22;2470;49.868;8.660;2022-09-09T03:11:30;18.50;99.90
4910;DHT22;2470;49.868;8.660;2022-09-09T03:13:56;18.50;99.90
4910;DHT22;2470;49.868;8.660;2022-09-09T03:16:22;18.50;99.90
4910;DHT22;2470;49.868;8.660;2022-09-09T03:18:48;18.50;99.90
4910;DHT22;2470;49.868;8.660;2022-09-09T03:21:14;18.50;99.90
4910;DHT22;2470;49.868;8.660;2022-09-09T03:23:40;18.40;99.90
4910;DHT22;2470;49.868;8.660;2022-09-09T03:26:06;18.50;99.90
4910;DHT22;2470;49.868;8.660;2022-09-09T03:28:32;18.40;99.90
4910;DHT22;2470;49.868;8.660;2022-09-09T03:31:02;18.40;99.90
4910;DHT22;2470;49.868;8.660;2022-09-09T03:33:28;18.40;99.90
4910;DHT22;2470;49.868;8.660;2022-09-09T03:35:55;18.40;99.90
4910;DHT22;2470;49.868;8.660;2022-09-09T03:38:25;18.30;99.90
4910;DHT22;2470;49.868;8.660;2022-09-09T03:40:52;18.30;99.90
4910;DHT22;2470;49.868;8.660;2022-09-09T03:43:23;18.30;99.90
4910;DHT22;2470;49.868;8.660;2022-09-09T03:45:50;18.30;99.90
4910;DHT22;2470;49.868;8.660;2022-09-09T03:48:17;18.30;99.90
4910;DHT22;2470;49.868;8.660;2022-09-09T03:50:46;18.30;99.90
4910;DHT22;2470;49.868;8.660;2022-09-09T03:53:13;18.30;99.90
4910;DHT22;2470;49.868;8.660;2022-09-09T03:55:39;18.30;99.90
4910;DHT22;2470;49.868;8.660;2022-09-09T03:58:06;18.30;99.90
4910;DHT22;2470;49.868;8.660;2022-09-09T04:00:33;18.20;99.90
4910;DHT22;2470;49.868;8.660;2022-09-09T04:02:58;18.20;99.90
4910;DHT22;2470;49.868;8.660;2022-09-09T04:05:24;18.10;99.90
4910;DHT22;2470;49.868;8.660;2022-09-09T04:07:49;18.10;99.90
4910;DHT22;2470;49.868;8.660;2022-09-09T04:10:16;18.10;99.90
4910;DHT22;2470;49.868;8.660;2022-09-09T04:12:42;18.20;99.90
4910;DHT22;2470;49.868;8.660;2022-09-09T04:15:07;18.20;99.90
4910;DHT22;2470;49.868;8.660;2022-09-09T04:17:33;18.20;99.90
4910;DHT22;2470;49.868;8.660;2022-09-09T04:19:59;18.20;99.90
4910;DHT22;2470;49.868;8.660;2022-09-09T04:22:24;18.20;99.90
4910;DHT22;2470;49.868;8.660;2022-09-09T04:24:50;18.10;99.90
4910;DHT22;2470;49.868;8.660;2022-09-09T04:27:15;18.10;99.90
4910;DHT22;2470;49.868;8.660;2022-09-09T04:29:41;18.20;99.90
4910;DHT22;2470;49.868;8.660;2022-09-09T04:32:06;18.10;99.90
4910;DHT22;2470;49.868;8.660;2022-09-09T04:34:32;18.10;99.90
4910;DHT22;2470;49.868;8.660;2022-09-09T04:36:58;18.10;99.90
4910;DHT22;2470;49.868;8.660;2022-09-09T04:39:24;18.00;99.90
4910;DHT22;2470;49.868;8.660;2022-09-09T04:41:49;18.00;99.90
4910;DHT22;2470;49.868;8.660;2022-09-09T04:44:15;17.90;99.90
4910;DHT22;2470;49.868;8.660;2022-09-09T04:46:41;17.90;99.90
4910;DHT22;2470;49.868;8.660;2022-09-09T04:49:06;18.00;99.90
4910;DHT22;2470;49.868;8.660;2022-09-09T04:51:32;17.90;99.90
4910;DHT22;2470;49.868;8.660;2022-09-09T04:53:58;17.90;99.90
4910;DHT22;2470;49.868;8.660;2022-09-09T04:56:23;17.90;99.90
4910;DHT22;2470;49.868;8.660;2022-09-09T04:58:51;17.90;99.90
4910;DHT22;2470;49.868;8.660;2022-09-09T05:01:19;17.90;99.90
4910;DHT22;2470;49.868;8.660;2022-09-09T05:03:45;17.90;99.90
4910;DHT22;2470;49.868;8.660;2022-09-09T05:06:13;17.80;99.90
4910;DHT22;2470;49.868;8.660;2022-09-09T05:08:40;17.80;99.90
4910;DHT22;2470;49.868;8.660;2022-09-09T05:11:21;17.80;99.90
4910;DHT22;2470;49.868;8.660;2022-09-09T05:13:49;17.80;99.90
4910;DHT22;2470;49.868;8.660;2022-09-09T05:16:16;17.80;99.90
4910;DHT22;2470;49.868;8.660;2022-09-09T05:18:42;17.90;99.90
4910;DHT22;2470;49.868;8.660;2022-09-09T05:21:09;17.90;99.90
4910;DHT22;2470;49.868;8.660;2022-09-09T05:23:35;17.90;99.90
4910;DHT22;2470;49.868;8.660;2022-09-09T05:26:01;17.90;99.90
4910;DHT22;2470;49.868;8.660;2022-09-09T05:28:27;17.90;99.90
4910;DHT22;2470;49.868;8.660;2022-09-09T05:31:01;17.90;99.90
4910;DHT22;2470;49.868;8.660;2022-09-09T05:33:29;17.90;99.90
4910;DHT22;2470;49.868;8.660;2022-09-09T05:35:59;17.80;99.90
4910;DHT22;2470;49.868;8.660;2022-09-09T05:38:27;17.80;99.90
4910;DHT22;2470;49.868;8.660;2022-09-09T05:40:53;17.80;99.90
4910;DHT22;2470;49.868;8.660;2022-09-09T05:43:22;17.90;99.90
4910;DHT22;2470;49.868;8.660;2022-09-09T05:45:48;17.90;99.90
4910;DHT22;2470;49.868;8.660;2022-09-09T05:48:23;17.90;99.90
4910;DHT22;2470;49.868;8.660;2022-09-09T05:50:53;17.90;99.90
4910;DHT22;2470;49.868;8.660;2022-09-09T05:53:19;17.90;99.90
4910;DHT22;2470;49.868;8.660;2022-09-09T05:55:45;17.90;99.90
4910;DHT22;2470;49.868;8.660;2022-09-09T05:58:11;17.80;99.90
4910;DHT22;2470;49.868;8.660;2022-09-09T06:00:36;17.80;99.90
4910;DHT22;2470;49.868;8.660;2022-09-09T06:03:03;17.90;99.90
4910;DHT22;2470;49.868;8.660;2022-09-09T06:05:29;17.90;99.90
4910;DHT22;2470;49.868;8.660;2022-09-09T06:07:54;17.90;99.90
4910;DHT22;2470;49.868;8.660;2022-09-09T06:10:21;18.00;99.90
4910;DHT22;2470;49.868;8.660;2022-09-09T06:12:46;18.00;99.90
4910;DHT22;2470;49.868;8.660;2022-09-09T06:15:12;18.00;99.90
4910;DHT22;2470;49.868;8.660;2022-09-09T06:17:37;18.10;99.90
4910;DHT22;2470;49.868;8.660;2022-09-09T06:20:04;18.10;99.90
4910;DHT22;2470;49.868;8.660;2022-09-09T06:22:30;18.10;99.90
4910;DHT22;2470;49.868;8.660;2022-09-09T06:24:56;18.20;99.90
4910;DHT22;2470;49.868;8.660;2022-09-09T06:27:22;18.20;99.90
4910;DHT22;2470;49.868;8.660;2022-09-09T06:29:47;18.30;99.90
4910;DHT22;2470;49.868;8.660;2022-09-09T06:32:13;18.40;99.90
4910;DHT22;2470;49.868;8.660;2022-09-09T06:34:39;18.40;99.90
4910;DHT22;2470;49.868;8.660;2022-09-09T06:37:05;18.40;99.90
4910;DHT22;2470;49.868;8.660;2022-09-09T06:39:32;18.30;99.90
4910;DHT22;2470;49.868;8.660;2022-09-09T06:41:57;18.40;99.90
4910;DHT22;2470;49.868;8.660;2022-09-09T06:44:24;18.40;99.90
4910;DHT22;2470;49.868;8.660;2022-09-09T06:46:52;18.40;99.90
4910;DHT22;2470;49.868;8.660;2022-09-09T06:49:17;18.50;99.90
4910;DHT22;2470;49.868;8.660;2022-09-09T06:51:44;18.50;99.90
4910;DHT22;2470;49.868;8.660;2022-09-09T06:54:11;18.50;99.90
4910;DHT22;2470;49.868;8.660;2022-09-09T06:56:38;18.50;99.90
4910;DHT22;2470;49.868;8.660;2022-09-09T06:59:07;18.60;99.90
4910;DHT22;2470;49.868;8.660;2022-09-09T07:01:39;18.70;99.90
4910;DHT22;2470;49.868;8.660;2022-09-09T07:04:16;18.70;99.90
4910;DHT22;2470;49.868;8.660;2022-09-09T07:06:46;18.70;99.90
4910;DHT22;2470;49.868;8.660;2022-09-09T07:09:15;18.70;99.90
4910;DHT22;2470;49.868;8.660;2022-09-09T07:11:44;18.80;99.90
4910;DHT22;2470;49.868;8.660;2022-09-09T07:14:10;18.80;99.90
4910;DHT22;2470;49.868;8.660;2022-09-09T07:16:43;18.80;99.90
4910;DHT22;2470;49.868;8.660;2022-09-09T07:19:09;18.80;99.90
4910;DHT22;2470;49.868;8.660;2022-09-09T07:21:35;18.80;99.90
4910;DHT22;2470;49.868;8.660;2022-09-09T07:24:01;18.80;99.90
4910;DHT22;2470;49.868;8.660;2022-09-09T07:26:29;18.80;99.90
4910;DHT22;2470;49.868;8.660;2022-09-09T07:28:55;18.90;99.90
4910;DHT22;2470;49.868;8.660;2022-09-09T07:31:31;18.80;99.90
4910;DHT22;2470;49.868;8.660;2022-09-09T07:33:57;18.80;99.90
4910;DHT22;2470;49.868;8.660;2022-09-09T07:36:26;18.80;99.90
4910;DHT22;2470;49.868;8.660;2022-09-09T07:38:57;18.80;99.90
4910;DHT22;2470;49.868;8.660;2022-09-09T07:41:29;18.80;99.90
4910;DHT22;2470;49.868;8.660;2022-09-09T07:43:55;18.90;99.90
4910;DHT22;2470;49.868;8.660;2022-09-09T07:46:23;18.90;99.90
4910;DHT22;2470;49.868;8.660;2022-09-09T07:48:54;18.90;99.90
4910;DHT22;2470;49.868;8.660;2022-09-09T07:51:25;18.90;99.90
4910;DHT22;2470;49.868;8.660;2022-09-09T07:53:54;19.10;99.90
4910;DHT22;2470;49.868;8.660;2022-09-09T07:56:20;19.10;99.90
4910;DHT22;2470;49.868;8.660;2022-09-09T07:58:49;19.30;99.90
4910;DHT22;2470;49.868;8.660;2022-09-09T08:01:20;19.40;99.90
4910;DHT22;2470;49.868;8.660;2022-09-09T08:03:52;19.50;99.90
4910;DHT22;2470;49.868;8.660;2022-09-09T08:06:18;19.60;99.90
4910;DHT22;2470;49.868;8.660;2022-09-09T08:08:43;19.60;99.90
4910;DHT22;2470;49.868;8.660;2022-09-09T08:11:11;19.70;99.90
4910;DHT22;2470;49.868;8.660;2022-09-09T08:13:38;19.60;99.90
4910;DHT22;2470;49.868;8.660;2022-09-09T08:16:10;19.60;99.90
4910;DHT22;2470;49.868;8.660;2022-09-09T08:18:37;19.60;99.90
4910;DHT22;2470;49.868;8.660;2022-09-09T08:21:11;19.60;99.90
4910;DHT22;2470;49.868;8.660;2022-09-09T08:23:40;19.60;99.90
4910;DHT22;2470;49.868;8.660;2022-09-09T08:26:24;19.60;99.90
4910;DHT22;2470;49.868;8.660;2022-09-09T08:28:51;19.60;99.90
4910;DHT22;2470;49.868;8.660;2022-09-09T08:31:20;19.70;99.90
4910;DHT22;2470;49.868;8.660;2022-09-09T08:33:46;19.80;99.90
4910;DHT22;2470;49.868;8.660;2022-09-09T08:36:14;19.80;99.90
4910;DHT22;2470;49.868;8.660;2022-09-09T08:38:43;19.70;99.90
4910;DHT22;2470;49.868;8.660;2022-09-09T08:47:13;19.70;99.90
4910;DHT22;2470;49.868;8.660;2022-09-09T08:52:31;19.50;99.90
4910;DHT22;2470;49.868;8.660;2022-09-09T08:55:59;19.50;99.90
4910;DHT22;2470;49.868;8.660;2022-09-09T08:58:28;19.60;99.90
4910;DHT22;2470;49.868;8.660;2022-09-09T09:09:27;19.70;99.90
4910;DHT22;2470;49.868;8.660;2022-09-09T09:11:58;19.60;99.90
4910;DHT22;2470;49.868;8.660;2022-09-09T09:14:31;19.50;99.90
4910;DHT22;2470;49.868;8.660;2022-09-09T09:17:10;19.50;99.90
4910;DHT22;2470;49.868;8.660;2022-09-09T09:19:39;19.30;99.90
4910;DHT22;2470;49.868;8.660;2022-09-09T09:30:02;19.70;99.90
4910;DHT22;2470;49.868;8.660;2022-09-09T09:32:31;20.00;99.90
4910;DHT22;2470;49.868;8.660;2022-09-09T09:34:58;20.10;99.90
4910;DHT22;2470;49.868;8.660;2022-09-09T09:37:35;20.20;99.90
4910;DHT22;2470;49.868;8.660;2022-09-09T09:40:18;20.30;99.90
4910;DHT22;2470;49.868;8.660;2022-09-09T09:42:52;20.30;99.90
4910;DHT22;2470;49.868;8.660;2022-09-09T09:45:31;20.10;99.90
4910;DHT22;2470;49.868;8.660;2022-09-09T09:48:03;20.10;99.90
4910;DHT22;2470;49.868;8.660;2022-09-09T09:50:29;20.10;99.90
4910;DHT22;2470;49.868;8.660;2022-09-09T09:53:03;20.20;99.90
4910;DHT22;2470;49.868;8.660;2022-09-09T09:55:33;20.30;99.90
4910;DHT22;2470;49.868;8.660;2022-09-09T09:58:13;20.40;99.90
4910;DHT22;2470;49.868;8.660;2022-09-09T10:00:48;20.40;99.90
4910;DHT22;2470;49.868;8.660;2022-09-09T10:03:30;20.60;99.90
4910;DHT22;2470;49.868;8.660;2022-09-09T10:06:11;20.70;99.90
4910;DHT22;2470;49.868;8.660;2022-09-09T10:08:44;20.70;99.90
4910;DHT22;2470;49.868;8.660;2022-09-09T10:14:30;20.80;99.90
4910;DHT22;2470;49.868;8.660;2022-09-09T10:17:21;20.90;99.90
4910;DHT22;2470;49.868;8.660;2022-09-09T10:20:16;21.00;99.90
4910;DHT22;2470;49.868;8.660;2022-09-09T10:22:51;20.90;99.90
4910;DHT22;2470;49.868;8.660;2022-09-09T10:25:27;20.80;99.90
4910;DHT22;2470;49.868;8.660;2022-09-09T10:28:03;20.70;99.90
4910;DHT22;2470;49.868;8.660;2022-09-09T10:30:45;20.60;99.90
4910;DHT22;2470;49.868;8.660;2022-09-09T10:33:26;20.50;99.90
4910;DHT22;2470;49.868;8.660;2022-09-09T10:36:33;20.30;99.90
4910;DHT22;2470;49.868;8.660;2022-09-09T10:39:03;20.20;99.90
4910;DHT22;2470;49.868;8.660;2022-09-09T10:41:35;20.00;99.90
4910;DHT22;2470;49.868;8.660;2022-09-09T10:47:12;19.80;99.90
4910;DHT22;2470;49.868;8.660;2022-09-09T10:55:14;19.40;99.90
4910;DHT22;2470;49.868;8.660;2022-09-09T10:57:50;19.30;99.90
4910;DHT22;2470;49.868;8.660;2022-09-09T11:03:03;19.30;99.90
4910;DHT22;2470;49.868;8.660;2022-09-09T11:05:49;19.30;99.90
4910;DHT22;2470;49.868;8.660;2022-09-09T11:08:26;19.30;99.90
4910;DHT22;2470;49.868;8.660;2022-09-09T11:11:03;19.10;99.90
4910;DHT22;2470;49.868;8.660;2022-09-09T11:13:55;19.10;99.90
4910;DHT22;2470;49.868;8.660;2022-09-09T11:19:21;19.20;99.90
4910;DHT22;2470;49.868;8.660;2022-09-09T11:21:47;19.30;99.90
4910;DHT22;2470;49.868;8.660;2022-09-09T11:26:54;19.50;99.90
4910;DHT22;2470;49.868;8.660;2022-09-09T11:32:39;19.70;99.90
4910;DHT22;2470;49.868;8.660;2022-09-09T11:38:21;19.90;99.90
4910;DHT22;2470;49.868;8.660;2022-09-09T11:40:56;19.80;99.90
4910;DHT22;2470;49.868;8.660;2022-09-09T11:43:28;19.60;99.90
4910;DHT22;2470;49.868;8.660;2022-09-09T11:46:00;19.60;99.90
4910;DHT22;2470;49.868;8.660;2022-09-09T11:48:35;19.50;99.90
4910;DHT22;2470;49.868;8.660;2022-09-09T11:51:05;19.50;99.90
4910;DHT22;2470;49.868;8.660;2022-09-09T11:53:33;19.50;99.90
4910;DHT22;2470;49.868;8.660;2022-09-09T11:56:06;19.50;99.90
4910;DHT22;2470;49.868;8.660;2022-09-09T11:58:43;19.50;99.90
4910;DHT22;2470;49.868;8.660;2022-09-09T12:01:41;19.70;99.90
4910;DHT22;2470;49.868;8.660;2022-09-09T12:04:33;19.80;99.90
4910;DHT22;2470;49.868;8.660;2022-09-09T12:17:22;20.00;99.90
4910;DHT22;2470;49.868;8.660;2022-09-09T12:19:59;20.40;99.90
4910;DHT22;2470;49.868;8.660;2022-09-09T12:27:55;20.70;99.90
4910;DHT22;2470;49.868;8.660;2022-09-09T12:30:29;20.70;99.90
4910;DHT22;2470;49.868;8.660;2022-09-09T12:33:02;20.60;99.90
4910;DHT22;2470;49.868;8.660;2022-09-09T12:35:28;20.50;99.90
4910;DHT22;2470;49.868;8.660;2022-09-09T12:37:59;20.40;99.90
4910;DHT22;2470;49.868;8.660;2022-09-09T12:40:28;20.40;99.90
4910;DHT22;2470;49.868;8.660;2022-09-09T12:42:54;20.30;99.90
4910;DHT22;2470;49.868;8.660;2022-09-09T12:45:22;20.30;99.90
4910;DHT22;2470;49.868;8.660;2022-09-09T12:47:59;20.30;99.90
4910;DHT22;2470;49.868;8.660;2022-09-09T12:50:34;20.30;99.90
4910;DHT22;2470;49.868;8.660;2022-09-09T12:53:15;20.30;99.90
4910;DHT22;2470;49.868;8.660;2022-09-09T12:55:51;20.30;99.90
4910;DHT22;2470;49.868;8.660;2022-09-09T12:58:17;20.30;99.90
4910;DHT22;2470;49.868;8.660;2022-09-09T13:00:52;20.30;99.90
4910;DHT22;2470;49.868;8.660;2022-09-09T13:03:20;20.20;99.90
4910;DHT22;2470;49.868;8.660;2022-09-09T13:05:49;20.20;99.90
4910;DHT22;2470;49.868;8.660;2022-09-09T13:08:16;20.10;99.90
4910;DHT22;2470;49.868;8.660;2022-09-09T13:10:57;20.10;99.90
4910;DHT22;2470;49.868;8.660;2022-09-09T13:15:59;20.10;99.90
4910;DHT22;2470;49.868;8.660;2022-09-09T13:18:37;20.10;99.90
4910;DHT22;2470;49.868;8.660;2022-09-09T13:21:04;20.20;99.90
4910;DHT22;2470;49.868;8.660;2022-09-09T13:23:34;20.20;99.90
4910;DHT22;2470;49.868;8.660;2022-09-09T13:26:44;20.10;99.90
4910;DHT22;2470;49.868;8.660;2022-09-09T13:28:51;20.10;99.90
4910;DHT22;2470;49.868;8.660;2022-09-09T13:31:27;20.00;99.90
4910;DHT22;2470;49.868;8.660;2022-09-09T13:33:53;19.90;99.90
4910;DHT22;2470;49.868;8.660;2022-09-09T13:36:31;19.80;99.90
4910;DHT22;2470;49.868;8.660;2022-09-09T13:38:59;19.70;99.90
4910;DHT22;2470;49.868;8.660;2022-09-09T13:41:42;19.60;99.90
4910;DHT22;2470;49.868;8.660;2022-09-09T13:44:25;19.60;99.90
4910;DHT22;2470;49.868;8.660;2022-09-09T13:47:06;19.60;99.90
4910;DHT22;2470;49.868;8.660;2022-09-09T13:49:42;19.50;99.90
4910;DHT22;2470;49.868;8.660;2022-09-09T13:52:13;19.50;99.90
4910;DHT22;2470;49.868;8.660;2022-09-09T13:54:42;19.60;99.90
4910;DHT22;2470;49.868;8.660;2022-09-09T13:57:26;20.50;99.90
4910;DHT22;2470;49.868;8.660;2022-09-09T13:59:53;22.00;99.90
4910;DHT22;2470;49.868;8.660;2022-09-09T14:02:20;22.10;99.90
4910;DHT22;2470;49.868;8.660;2022-09-09T14:04:46;21.90;99.90
4910;DHT22;2470;49.868;8.660;2022-09-09T14:07:17;21.90;99.90
4910;DHT22;2470;49.868;8.660;2022-09-09T14:09:43;23.90;99.90
4910;DHT22;2470;49.868;8.660;2022-09-09T14:12:12;26.50;92.50
4910;DHT22;2470;49.868;8.660;2022-09-09T14:14:40;26.80;88.90
4910;DHT22;2470;49.868;8.660;2022-09-09T14:17:07;27.90;84.00
4910;DHT22;2470;49.868;8.660;2022-09-09T14:19:33;27.50;83.00
4910;DHT22;2470;49.868;8.660;2022-09-09T14:21:59;26.80;82.60
4910;DHT22;2470;49.868;8.660;2022-09-09T14:24:26;25.80;86.60
4910;DHT22;2470;49.868;8.660;2022-09-09T14:26:53;25.20;90.90
4910;DHT22;2470;49.868;8.660;2022-09-09T14:29:18;24.60;91.60
4910;DHT22;2470;49.868;8.660;2022-09-09T14:31:44;24.00;92.80
4910;DHT22;2470;49.868;8.660;2022-09-09T14:34:10;23.30;93.60
4910;DHT22;2470;49.868;8.660;2022-09-09T14:36:36;22.70;95.60
4910;DHT22;2470;49.868;8.660;2022-09-09T14:39:03;22.50;97.10
4910;DHT22;2470;49.868;8.660;2022-09-09T14:41:29;22.30;97.60
4910;DHT22;2470;49.868;8.660;2022-09-09T14:43:54;22.20;98.10
4910;DHT22;2470;49.868;8.660;2022-09-09T14:46:20;21.90;98.70
4910;DHT22;2470;49.868;8.660;2022-09-09T14:48:46;21.70;98.60
4910;DHT22;2470;49.868;8.660;2022-09-09T14:51:21;21.50;99.20
4910;DHT22;2470;49.868;8.660;2022-09-09T14:53:47;21.20;99.70
4910;DHT22;2470;49.868;8.660;2022-09-09T14:56:16;21.10;99.90
4910;DHT22;2470;49.868;8.660;2022-09-09T14:58:42;21.10;99.90
4910;DHT22;2470;49.868;8.660;2022-09-09T15:01:11;21.10;99.90
4910;DHT22;2470;49.868;8.660;2022-09-09T15:03:38;21.10;99.90
4910;DHT22;2470;49.868;8.660;2022-09-09T15:06:08;21.10;99.90
4910;DHT22;2470;49.868;8.660;2022-09-09T15:08:38;21.10;99.90
4910;DHT22;2470;49.868;8.660;2022-09-09T15:11:05;21.10;99.90
4910;DHT22;2470;49.868;8.660;2022-09-09T15:13:34;21.10;99.90
4910;DHT22;2470;49.868;8.660;2022-09-09T15:16:15;20.90;99.90
4910;DHT22;2470;49.868;8.660;2022-09-09T15:18:41;20.80;99.90
4910;DHT22;2470;49.868;8.660;2022-09-09T15:21:11;20.70;99.90
4910;DHT22;2470;49.868;8.660;2022-09-09T15:23:36;20.50;99.90
4910;DHT22;2470;49.868;8.660;2022-09-09T15:26:03;20.50;99.90
4910;DHT22;2470;49.868;8.660;2022-09-09T15:28:29;20.60;99.90
4910;DHT22;2470;49.868;8.660;2022-09-09T15:30:56;20.40;99.90
4910;DHT22;2470;49.868;8.660;2022-09-09T15:33:22;20.40;99.90
4910;DHT22;2470;49.868;8.660;2022-09-09T15:35:48;20.40;99.90
4910;DHT22;2470;49.868;8.660;2022-09-09T15:38:15;20.30;99.90
4910;DHT22;2470;49.868;8.660;2022-09-09T15:40:42;20.40;99.90
4910;DHT22;2470;49.868;8.660;2022-09-09T15:43:08;20.40;99.90
4910;DHT22;2470;49.868;8.660;2022-09-09T15:45:36;20.40;99.90
4910;DHT22;2470;49.868;8.660;2022-09-09T15:48:02;20.50;99.90
4910;DHT22;2470;49.868;8.660;2022-09-09T15:50:28;20.40;99.90
4910;DHT22;2470;49.868;8.660;2022-09-09T15:52:55;20.50;99.90
4910;DHT22;2470;49.868;8.660;2022-09-09T15:55:21;20.60;99.90
4910;DHT22;2470;49.868;8.660;2022-09-09T15:57:46;20.70;99.90
4910;DHT22;2470;49.868;8.660;2022-09-09T16:00:12;20.90;99.90
4910;DHT22;2470;49.868;8.660;2022-09-09T16:02:39;21.00;99.90
4910;DHT22;2470;49.868;8.660;2022-09-09T16:05:05;21.00;99.90
4910;DHT22;2470;49.868;8.660;2022-09-09T16:07:31;20.90;99.90
4910;DHT22;2470;49.868;8.660;2022-09-09T16:09:56;20.80;99.90
4910;DHT22;2470;49.868;8.660;2022-09-09T16:12:22;20.80;99.90
4910;DHT22;2470;49.868;8.660;2022-09-09T16:14:47;20.70;99.90
4910;DHT22;2470;49.868;8.660;2022-09-09T16:17:13;20.60;99.90
4910;DHT22;2470;49.868;8.660;2022-09-09T16:19:39;21.00;99.90
4910;DHT22;2470;49.868;8.660;2022-09-09T16:22:05;21.50;99.90
4910;DHT22;2470;49.868;8.660;2022-09-09T16:24:31;21.80;99.90
4910;DHT22;2470;49.868;8.660;2022-09-09T16:26:57;21.40;98.90
4910;DHT22;2470;49.868;8.660;2022-09-09T16:29:23;21.20;99.00
4910;DHT22;2470;49.868;8.660;2022-09-09T16:31:49;20.90;99.20
4910;DHT22;2470;49.868;8.660;2022-09-09T16:34:16;20.60;99.80
4910;DHT22;2470;49.868;8.660;2022-09-09T16:36:43;20.50;99.90
4910;DHT22;2470;49.868;8.660;2022-09-09T16:39:11;20.40;99.90
4910;DHT22;2470;49.868;8.660;2022-09-09T16:41:38;20.20;99.90
4910;DHT22;2470;49.868;8.660;2022-09-09T16:44:06;20.10;99.90
4910;DHT22;2470;49.868;8.660;2022-09-09T16:46:35;19.90;99.90
4910;DHT22;2470;49.868;8.660;2022-09-09T16:49:02;19.80;99.90
4910;DHT22;2470;49.868;8.660;2022-09-09T16:51:40;19.70;99.90
4910;DHT22;2470;49.868;8.660;2022-09-09T16:54:07;19.60;99.90
4910;DHT22;2470;49.868;8.660;2022-09-09T16:56:35;19.50;99.90
4910;DHT22;2470;49.868;8.660;2022-09-09T16:59:09;19.40;99.90
4910;DHT22;2470;49.868;8.660;2022-09-09T17:01:37;19.30;99.90
4910;DHT22;2470;49.868;8.660;2022-09-09T17:04:05;19.30;99.90
4910;DHT22;2470;49.868;8.660;2022-09-09T17:06:33;19.20;99.90
4910;DHT22;2470;49.868;8.660;2022-09-09T17:09:01;19.20;99.90
4910;DHT22;2470;49.868;8.660;2022-09-09T17:11:28;19.10;99.90
4910;DHT22;2470;49.868;8.660;2022-09-09T17:13:54;19.10;99.90
4910;DHT22;2470;49.868;8.660;2022-09-09T17:16:22;19.00;99.90
4910;DHT22;2470;49.868;8.660;2022-09-09T17:18:51;18.90;99.90
4910;DHT22;2470;49.868;8.660;2022-09-09T17:21:19;18.90;99.90
4910;DHT22;2470;49.868;8.660;2022-09-09T17:23:45;18.80;99.90
4910;DHT22;2470;49.868;8.660;2022-09-09T17:26:14;18.70;99.90
4910;DHT22;2470;49.868;8.660;2022-09-09T17:28:42;18.80;99.90
4910;DHT22;2470;49.868;8.660;2022-09-09T17:31:10;18.70;99.90
4910;DHT22;2470;49.868;8.660;2022-09-09T17:33:37;18.70;99.90
4910;DHT22;2470;49.868;8.660;2022-09-09T17:36:13;18.70;99.90
4910;DHT22;2470;49.868;8.660;2022-09-09T17:38:39;18.70;99.90
4910;DHT22;2470;49.868;8.660;2022-09-09T17:41:07;18.60;99.90
4910;DHT22;2470;49.868;8.660;2022-09-09T17:43:34;18.50;99.90
4910;DHT22;2470;49.868;8.660;2022-09-09T17:46:14;18.40;99.90
4910;DHT22;2470;49.868;8.660;2022-09-09T17:48:42;18.30;99.90